Flight Track Log - Related Links

Times and Time Zones

All times are in EDT time to prevent confusion due to time zone crossing. See the PDT4147 flight status page for this flight to view local times or setup timezone preferences in your user account.

Time Position Orientation Groundspeed Altitude Reporting Facility
EDT Latitude Longitude Course Direction KTS MPH feet Rate Location/Type
Thu 04:36:40 PM 35.1928 -80.9281 71° East 147 169 1,400  Level Atlanta Center
Thu 04:38:06 PM 35.1864 -80.8469 95° East 180 207 3,300 1,447 Climbing Atlanta Center
Thu 04:39:00 PM 35.2873 -80.6400 64° Northeast  Level FlightAware Approximate
Thu 04:39:01 PM 35.1808 -80.7911 97° East 180 207 4,800  Level Atlanta Center
Thu 04:40:00 PM 35.3232 -80.5434 71° East  Level FlightAware Approximate
Thu 04:40:08 PM 35.1725 -80.7153 98° East 227 261 5,000  Level Atlanta Center
Thu 04:41:00 PM 35.3515 -80.4428 71° East  Level FlightAware Approximate
Thu 04:41:09 PM 35.1722 -80.6264 90° East 261 300 5,000  Level Atlanta Center
Thu 04:42:05 PM 35.2097 -80.5561 57° Northeast 263 303 5,000 885 Level Atlanta Center
Thu 04:43:11 PM 35.2494 -80.4858 55° Northeast 229 264 6,800 1,500 Climbing Atlanta Center
Thu 04:44:13 PM 35.2794 -80.4361 54° Northeast 174 200 8,200 1,128 Climbing Atlanta Center
Thu 04:45:08 PM 35.3050 -80.3842 59° Northeast 190 219 9,000 873 Climbing Atlanta Center
Thu 04:47:00 PM 35.3954 -80.2194 56° Northeast  Level FlightAware Approximate
Thu 04:54:00 PM 35.9525 -80.0617 North  Level FlightAware Approximate
Thu 04:55:00 PM 36.0391 -80.0551 North  Level FlightAware Approximate
Thu 04:56:00 PM 36.1256 -80.0484 North  Level FlightAware Approximate
Thu 04:57:00 PM 36.2122 -80.0418 North  Level FlightAware Approximate
Thu 04:58:00 PM 36.2988 -80.0351 North  Level FlightAware Approximate
Thu 04:59:00 PM 36.3854 -80.0284 North  Level FlightAware Approximate
Thu 05:00:00 PM 36.4720 -80.0217 North  Level FlightAware Approximate
Thu 05:01:00 PM 36.5585 -80.0149 North  Level FlightAware Approximate
Thu 05:02:00 PM 36.6451 -80.0082 North  Level FlightAware Approximate
Thu 05:03:00 PM 36.7317 -80.0014 North  Level FlightAware Approximate
Thu 05:04:00 PM 36.8184 -80.0000 North  Level FlightAware Approximate
Thu 05:05:00 PM 36.9051 -80.0000 North  Level FlightAware Approximate
Thu 05:06:00 PM 36.9901 -79.9833 North  Level FlightAware Approximate
Thu 05:07:00 PM 37.0769 -79.9833 360° North  Level FlightAware Approximate
Thu 05:08:00 PM 37.1636 -79.9833 North  Level FlightAware Approximate
Thu 05:09:00 PM 37.2495 -79.9701 North  Level FlightAware Approximate
Thu 05:10:00 PM 37.3167 -79.9667 North  Level FlightAware Approximate
Thu 05:11:00 PM 37.3255 -79.9754 North  Level Estimated
Thu 05:12:00 PM 37.3255 -79.9754 North  Level Estimated
Thu 05:13:00 PM 37.3255 -79.9754 North  Level Estimated
Thu 05:14:00 PM 37.3255 -79.9754 North  Level Estimated
Thu 05:15:00 PM 37.3255 -79.9754 North  Level Estimated
Thu 05:16:00 PM 37.3255 -79.9754 North  Level Estimated
Thu 05:17:00 PM 37.3255 -79.9754 North  Level Estimated
Thu 05:18:00 PM 37.3255 -79.9754 North  Level Estimated

Login

Don't have an account? Register now (free) for customized features, flight alerts, and more!